Aviation Digital Data Service (ADDS)

Output produced by METARs form (1333 UTC 26 May 2018)
found at http://www.aviationweather.gov/adds/metars/
 
HRYR 261300Z 18004KT 150V230 9999 SCT025TCU 24/15 Q1018 NOSIG
TAF HRYR 261100Z 2612/2718 18007KT 9999 BKN025 
     TEMPO 2614/2619 14010KT -TSRA FEW023CB BKN25 FM 262200 32003KT SCT026 BKN100 
     BECMG 2703/2705 VRB03KT SCT025 SCT100 FM 270800 16005KT BKN023 
     TEMPO 2713/2718 21008KT TS FEW023CB BKN025